Val-David, Canada
Current Conditions -  °F | °C
As of 1:00 PM on Friday 31 Oct 2014 (Local Time) from CYMX Reporting Station
Scattered Clouds Scattered Clouds  
Wind Chill: 40°   Ceiling: Unl
Heat Index: 43°   Visibility: 45mi
Dew Point: 23°   Wind: 5mph
Humidity: 46%   Direction: 10°N
Pressure: 30.07"   Gusts: NA
Location:  46.03°N, 74.2°W
Report Text: CYMX 311700Z 01004KT 340V120 45SM FEW032 SCT250 06/M05 A3007 RMK CU2CI1 SLP187
Loading
Personal Weather Stations






























Interactive Weather Map
Tropical Storm Tracking
New forecast layout! Learn more

10-Day Weather Forecast

Advertisements
Track Severe Weather on mobile